createdAt,value
2018-09-30T00:02:07.106Z,9.07
2018-09-30T00:04:34.372Z,9.67
2018-09-30T00:07:01.686Z,9.63
2018-09-30T00:09:30.968Z,9.50
2018-09-30T00:11:59.840Z,9.30
2018-09-30T00:14:27.507Z,9.00
2018-09-30T00:16:54.808Z,9.53
2018-09-30T00:19:22.143Z,9.50
2018-09-30T00:21:49.481Z,9.37
2018-09-30T00:24:22.331Z,9.43
2018-09-30T00:26:55.322Z,8.93
2018-09-30T00:29:22.615Z,9.27
2018-09-30T00:31:49.976Z,9.47
2018-09-30T00:34:22.840Z,9.17
2018-09-30T00:36:50.188Z,9.57
2018-09-30T00:39:17.488Z,10.00
2018-09-30T00:41:44.752Z,9.40
2018-09-30T00:44:12.016Z,10.30
2018-09-30T00:46:39.356Z,9.73
2018-09-30T00:49:06.865Z,10.43
2018-09-30T00:51:34.122Z,10.13
2018-09-30T00:54:01.559Z,10.07
2018-09-30T00:56:28.820Z,10.03
2018-09-30T00:58:56.085Z,10.13
2018-09-30T01:01:23.384Z,9.97
2018-09-30T01:03:50.643Z,9.57
2018-09-30T01:06:17.916Z,10.27
2018-09-30T01:08:45.171Z,9.37
2018-09-30T01:11:12.471Z,10.17
2018-09-30T01:13:39.716Z,9.17
2018-09-30T01:16:07.248Z,10.00
2018-09-30T01:18:34.564Z,10.10
2018-09-30T01:21:01.828Z,10.60
2018-09-30T01:23:29.096Z,9.73
2018-09-30T01:25:56.348Z,9.37
2018-09-30T01:28:23.615Z,10.23
2018-09-30T01:30:50.926Z,9.37
2018-09-30T01:33:18.195Z,9.27
2018-09-30T01:35:45.447Z,8.83
2018-09-30T01:38:12.703Z,10.17
2018-09-30T01:40:39.969Z,10.23
2018-09-30T01:43:07.265Z,9.30
2018-09-30T01:45:34.539Z,9.63
2018-09-30T01:48:01.812Z,9.00
2018-09-30T01:50:29.084Z,9.13
2018-09-30T01:52:57.256Z,9.70
2018-09-30T01:55:24.528Z,9.43
2018-09-30T01:57:51.847Z,9.53
2018-09-30T02:00:19.436Z,10.63
2018-09-30T02:02:47.307Z,9.80
2018-09-30T02:05:15.367Z,9.73
2018-09-30T02:07:43.016Z,9.43
2018-09-30T02:10:10.288Z,9.13
2018-09-30T02:12:37.560Z,9.63
2018-09-30T02:15:04.916Z,9.80
2018-09-30T02:17:32.639Z,9.20
2018-09-30T02:20:00.041Z,9.00
2018-09-30T02:22:27.759Z,10.07
2018-09-30T02:24:55.060Z,9.47
2018-09-30T02:27:22.344Z,9.27
2018-09-30T02:29:49.668Z,9.30
2018-09-30T02:32:16.964Z,9.60
2018-09-30T02:34:44.228Z,9.70
2018-09-30T02:37:11.554Z,9.50
2018-09-30T02:39:38.927Z,9.33
2018-09-30T02:42:06.230Z,10.23
2018-09-30T02:44:33.520Z,10.43
2018-09-30T02:47:00.792Z,9.45
2018-09-30T02:49:28.059Z,9.23
2018-09-30T02:51:55.336Z,9.60
2018-09-30T02:54:22.620Z,9.75
2018-09-30T02:56:50.316Z,9.15
2018-09-30T02:59:17.653Z,9.38
2018-09-30T03:01:44.936Z,9.65
2018-09-30T03:04:12.208Z,10.28
2018-09-30T03:06:45.008Z,9.20
2018-09-30T03:09:14.780Z,8.30
2018-09-30T03:11:42.443Z,9.73
2018-09-30T03:14:10.326Z,10.30
2018-09-30T03:16:37.659Z,9.88
2018-09-30T03:19:04.951Z,9.60
2018-09-30T03:21:32.230Z,10.68
2018-09-30T03:23:59.504Z,9.68
2018-09-30T03:26:26.786Z,10.18
2018-09-30T03:28:54.052Z,9.75
2018-09-30T03:31:21.409Z,9.50
2018-09-30T03:33:48.697Z,10.30
2018-09-30T03:36:15.976Z,10.08
2018-09-30T03:38:43.243Z,9.00
2018-09-30T03:41:10.524Z,8.55
2018-09-30T03:43:37.800Z,8.70
2018-09-30T03:46:05.097Z,9.43
2018-09-30T03:48:32.407Z,9.65
2018-09-30T03:50:59.920Z,9.70
2018-09-30T03:53:27.179Z,9.55
2018-09-30T03:55:54.515Z,9.23
2018-09-30T03:58:21.835Z,8.65
2018-09-30T04:00:49.108Z,8.95
2018-09-30T04:03:16.386Z,9.30
2018-09-30T04:05:43.651Z,9.10
2018-09-30T04:08:10.916Z,8.38
2018-09-30T04:10:38.204Z,9.10
2018-09-30T04:13:05.516Z,8.60
2018-09-30T04:15:32.832Z,9.13
2018-09-30T04:18:00.108Z,9.03
2018-09-30T04:20:27.388Z,8.15
2018-09-30T04:22:54.652Z,8.50
2018-09-30T04:25:21.944Z,8.03
2018-09-30T04:27:49.209Z,9.05
2018-09-30T04:30:17.052Z,9.30
2018-09-30T04:32:44.329Z,8.73
2018-09-30T04:35:11.620Z,9.70
2018-09-30T04:37:38.891Z,9.80
2018-09-30T04:40:06.335Z,10.05
2018-09-30T04:42:33.627Z,9.35
2018-09-30T04:45:00.888Z,8.60
2018-09-30T04:47:28.157Z,8.70
2018-09-30T04:49:55.495Z,8.63
2018-09-30T04:52:22.711Z,8.50
2018-09-30T04:54:50.326Z,8.93
2018-09-30T04:57:17.612Z,8.45
2018-09-30T04:59:44.912Z,8.95
2018-09-30T05:02:12.172Z,9.30
2018-09-30T05:04:39.492Z,8.65
2018-09-30T05:07:06.780Z,7.95
2018-09-30T05:09:34.060Z,8.18
2018-09-30T05:12:01.393Z,8.30
2018-09-30T05:14:28.608Z,8.65
2018-09-30T05:16:55.876Z,8.73
2018-09-30T05:19:23.157Z,8.98
2018-09-30T05:21:50.491Z,8.85
2018-09-30T05:24:17.764Z,8.90
2018-09-30T05:26:45.048Z,8.83
2018-09-30T05:29:12.295Z,9.05
2018-09-30T05:31:39.575Z,8.10
2018-09-30T05:34:06.866Z,8.78
2018-09-30T05:36:34.140Z,8.45
2018-09-30T05:39:01.492Z,8.43
2018-09-30T05:41:28.759Z,8.28
2018-09-30T05:43:56.038Z,8.45
2018-09-30T05:46:23.299Z,8.35
2018-09-30T05:48:50.588Z,8.83
2018-09-30T05:51:17.852Z,8.65
2018-09-30T05:53:45.120Z,9.20
2018-09-30T05:56:12.411Z,8.88
2018-09-30T05:58:39.679Z,8.88
2018-09-30T06:01:06.984Z,8.65
2018-09-30T06:03:34.260Z,8.98
2018-09-30T06:06:01.530Z,8.00
2018-09-30T06:08:29.124Z,8.83
2018-09-30T06:10:56.384Z,9.60
2018-09-30T06:13:23.651Z,8.05
2018-09-30T06:15:50.927Z,8.40
2018-09-30T06:18:18.176Z,8.20
2018-09-30T06:20:45.440Z,9.15
2018-09-30T06:23:12.696Z,8.60
2018-09-30T06:25:39.956Z,8.25
2018-09-30T06:28:07.208Z,9.58
2018-09-30T06:30:34.477Z,9.70
2018-09-30T06:33:01.735Z,9.20
2018-09-30T06:35:29.008Z,9.58
2018-09-30T06:37:56.264Z,9.48
2018-09-30T06:40:23.564Z,8.95
2018-09-30T06:42:50.831Z,8.93
2018-09-30T06:45:18.110Z,9.48
2018-09-30T06:47:45.368Z,9.30
2018-09-30T06:50:12.647Z,9.50
2018-09-30T06:52:39.928Z,8.93
2018-09-30T06:55:07.220Z,9.58
2018-09-30T06:57:34.488Z,9.78
2018-09-30T07:00:01.765Z,10.45
2018-09-30T07:02:29.027Z,10.32
2018-09-30T07:04:56.404Z,10.48
2018-09-30T07:07:23.608Z,11.10
2018-09-30T07:09:50.890Z,10.82
2018-09-30T07:12:18.171Z,11.70
2018-09-30T07:14:45.435Z,12.10
2018-09-30T07:17:12.699Z,11.05
2018-09-30T07:19:39.971Z,11.88
2018-09-30T07:22:07.234Z,12.25
2018-09-30T07:24:34.564Z,11.80
2018-09-30T07:27:01.843Z,12.90
2018-09-30T07:29:29.120Z,11.88
2018-09-30T07:31:56.398Z,11.73
2018-09-30T07:34:23.720Z,11.18
2018-09-30T07:36:50.971Z,11.25
2018-09-30T07:39:18.262Z,11.73
2018-09-30T07:41:45.588Z,11.87
2018-09-30T07:44:12.856Z,12.10
2018-09-30T07:46:40.177Z,12.27
2018-09-30T07:49:07.471Z,12.00
2018-09-30T07:51:34.746Z,11.43
2018-09-30T07:54:02.008Z,12.60
2018-09-30T07:56:29.278Z,12.40
2018-09-30T07:58:56.552Z,11.33
2018-09-30T08:01:23.848Z,12.30
2018-09-30T08:03:51.144Z,12.07
2018-09-30T08:06:18.461Z,11.50
2018-09-30T08:08:45.696Z,11.03
2018-09-30T08:11:12.956Z,11.57
2018-09-30T08:13:40.216Z,11.60
2018-09-30T08:16:07.657Z,11.30
2018-09-30T08:18:34.932Z,12.30
2018-09-30T08:21:02.263Z,11.00
2018-09-30T08:23:29.555Z,11.03
2018-09-30T08:25:56.830Z,10.90
2018-09-30T08:28:24.090Z,10.67
2018-09-30T08:30:51.491Z,10.63
2018-09-30T08:33:18.706Z,10.40
2018-09-30T08:35:51.560Z,11.40
2018-09-30T08:38:24.353Z,10.93
2018-09-30T08:40:57.287Z,10.80
2018-09-30T08:43:24.548Z,10.70
2018-09-30T08:45:51.902Z,10.93
2018-09-30T08:48:19.148Z,10.53
2018-09-30T08:50:46.433Z,10.73
2018-09-30T08:53:13.724Z,10.97
2018-09-30T08:55:41.049Z,11.23
2018-09-30T08:58:08.276Z,10.07
2018-09-30T09:00:35.551Z,9.70
2018-09-30T09:03:02.903Z,10.03
2018-09-30T09:05:30.108Z,10.73
2018-09-30T09:07:57.379Z,9.20
2018-09-30T09:10:24.623Z,8.83
2018-09-30T09:12:51.891Z,9.43
2018-09-30T09:15:19.189Z,10.53
2018-09-30T09:17:46.440Z,9.77
2018-09-30T09:20:13.779Z,10.60
2018-09-30T09:22:41.100Z,10.20
2018-09-30T09:25:08.437Z,9.33
2018-09-30T09:27:35.695Z,9.30
2018-09-30T09:30:04.705Z,9.07
2018-09-30T09:32:35.436Z,8.13
2018-09-30T09:35:03.454Z,9.03
2018-09-30T09:37:30.760Z,8.27
2018-09-30T09:39:58.044Z,8.17
2018-09-30T09:42:25.384Z,7.90
2018-09-30T09:44:52.652Z,7.23
2018-09-30T09:47:19.944Z,6.87
2018-09-30T09:49:47.196Z,6.87
2018-09-30T09:52:14.452Z,7.23
2018-09-30T09:54:41.783Z,7.70
2018-09-30T09:57:09.055Z,6.70
2018-09-30T09:59:36.324Z,6.73
2018-09-30T10:02:03.588Z,7.70
2018-09-30T10:04:30.855Z,7.60
2018-09-30T10:06:58.241Z,7.27
2018-09-30T10:09:25.515Z,7.40
2018-09-30T10:11:52.792Z,7.85
2018-09-30T10:14:20.053Z,6.87
2018-09-30T10:16:47.344Z,7.53
2018-09-30T10:19:14.628Z,7.83
2018-09-30T10:21:41.888Z,8.27
2018-09-30T10:24:09.168Z,8.63
2018-09-30T10:26:36.481Z,8.90
2018-09-30T10:29:03.771Z,8.43
2018-09-30T10:31:31.048Z,9.40
2018-09-30T10:33:58.303Z,8.87
2018-09-30T10:36:25.568Z,9.17
2018-09-30T10:38:52.876Z,9.33
2018-09-30T10:41:20.108Z,9.47
2018-09-30T10:43:47.419Z,8.70
2018-09-30T10:46:14.687Z,8.30
2018-09-30T10:48:41.951Z,7.67
2018-09-30T10:51:09.217Z,8.43
2018-09-30T10:53:36.479Z,8.27
2018-09-30T10:56:03.836Z,8.93
2018-09-30T10:58:31.113Z,7.80
2018-09-30T11:00:58.430Z,8.20
2018-09-30T11:03:25.759Z,8.30
2018-09-30T11:05:52.982Z,8.03
2018-09-30T11:08:20.248Z,7.57
2018-09-30T11:10:47.520Z,7.87
2018-09-30T11:13:14.794Z,7.77
2018-09-30T11:15:42.069Z,8.43
2018-09-30T11:18:09.353Z,7.80
2018-09-30T11:20:36.646Z,8.77
2018-09-30T11:23:03.920Z,8.27
2018-09-30T11:25:31.231Z,7.47
2018-09-30T11:27:58.504Z,8.27
2018-09-30T11:30:25.829Z,7.57
2018-09-30T11:32:53.060Z,6.17
2018-09-30T11:35:20.348Z,5.40
2018-09-30T11:37:47.621Z,5.50
2018-09-30T11:40:14.887Z,5.40
2018-09-30T11:42:42.201Z,5.03
2018-09-30T11:45:09.428Z,6.00
2018-09-30T11:47:36.699Z,5.97
2018-09-30T11:50:04.086Z,4.27
2018-09-30T11:52:31.413Z,5.10
2018-09-30T11:54:58.632Z,5.40
2018-09-30T11:57:25.904Z,5.20
2018-09-30T11:59:53.171Z,5.60
2018-09-30T12:02:20.565Z,4.80
2018-09-30T12:04:47.788Z,4.63
2018-09-30T12:07:15.060Z,4.73
2018-09-30T12:09:42.340Z,4.63
2018-09-30T12:12:09.653Z,5.03
2018-09-30T12:14:36.926Z,4.83
2018-09-30T12:17:04.313Z,4.90
2018-09-30T12:19:31.580Z,5.40
2018-09-30T12:21:58.856Z,4.90
2018-09-30T12:24:26.123Z,4.87
2018-09-30T12:26:53.400Z,5.10
2018-09-30T12:29:20.679Z,4.90
2018-09-30T12:31:47.986Z,5.73
2018-09-30T12:34:15.278Z,6.00
2018-09-30T12:36:42.572Z,6.30
2018-09-30T12:39:10.551Z,5.73
2018-09-30T12:41:37.816Z,5.03
2018-09-30T12:44:05.181Z,5.70
2018-09-30T12:46:32.524Z,5.70
2018-09-30T12:48:59.796Z,6.00
2018-09-30T12:51:27.071Z,5.80
2018-09-30T12:53:54.392Z,5.87
2018-09-30T12:56:21.668Z,5.37
2018-09-30T12:58:48.952Z,5.93
2018-09-30T13:01:16.601Z,5.63
2018-09-30T13:03:43.876Z,5.83
2018-09-30T13:06:11.141Z,5.77
2018-09-30T13:08:38.428Z,5.27
2018-09-30T13:11:05.720Z,6.10
2018-09-30T13:13:33.004Z,6.20
2018-09-30T13:16:00.285Z,5.87
2018-09-30T13:18:27.553Z,5.13
2018-09-30T13:20:54.857Z,5.90
2018-09-30T13:23:22.133Z,5.30
2018-09-30T13:25:49.396Z,5.43
2018-09-30T13:28:16.659Z,5.87
2018-09-30T13:30:43.976Z,6.00
2018-09-30T13:33:11.254Z,6.53
2018-09-30T13:35:38.580Z,6.80
2018-09-30T13:38:05.883Z,6.03
2018-09-30T13:40:33.186Z,6.33
2018-09-30T13:43:00.453Z,6.57
2018-09-30T13:45:27.761Z,6.03
2018-09-30T13:47:55.040Z,6.20
2018-09-30T13:50:22.305Z,5.43
2018-09-30T13:52:49.613Z,6.43
2018-09-30T13:55:16.907Z,6.33
2018-09-30T13:57:44.189Z,6.77
2018-09-30T14:00:11.456Z,6.90
2018-09-30T14:02:38.764Z,6.60
2018-09-30T14:05:06.085Z,5.37
2018-09-30T14:07:33.348Z,4.67
2018-09-30T14:10:00.626Z,6.83
2018-09-30T14:12:27.900Z,6.73
2018-09-30T14:14:55.849Z,6.63
2018-09-30T14:17:23.223Z,6.33
2018-09-30T14:19:50.492Z,6.40
2018-09-30T14:22:17.763Z,6.63
2018-09-30T14:24:45.032Z,8.20
2018-09-30T14:27:12.376Z,6.80
2018-09-30T14:29:39.613Z,6.97
2018-09-30T14:32:06.891Z,7.90
2018-09-30T14:34:34.248Z,7.60
2018-09-30T14:37:01.525Z,8.27
2018-09-30T14:39:28.805Z,8.40
2018-09-30T14:41:56.084Z,8.03
2018-09-30T14:44:23.352Z,7.80
2018-09-30T14:46:50.618Z,8.93
2018-09-30T14:49:17.891Z,8.77
2018-09-30T14:51:45.183Z,7.70
2018-09-30T14:54:12.457Z,9.10
2018-09-30T14:56:39.729Z,9.70
2018-09-30T14:59:07.021Z,9.20
2018-09-30T15:01:34.289Z,9.33
2018-09-30T15:04:01.573Z,9.07
2018-09-30T15:06:28.864Z,9.43
2018-09-30T15:08:56.116Z,9.50
2018-09-30T15:11:23.420Z,9.20
2018-09-30T15:13:50.697Z,8.90
2018-09-30T15:16:18.021Z,8.10
2018-09-30T15:18:45.290Z,9.00
2018-09-30T15:21:12.619Z,8.47
2018-09-30T15:23:39.888Z,7.10
2018-09-30T15:26:07.172Z,7.70
2018-09-30T15:28:34.443Z,7.40
2018-09-30T15:31:02.522Z,7.05
2018-09-30T15:33:29.802Z,6.50
2018-09-30T15:35:57.067Z,6.80
2018-09-30T15:38:24.343Z,7.00
2018-09-30T15:40:51.706Z,6.20
2018-09-30T15:43:19.064Z,6.70
2018-09-30T15:45:46.342Z,6.57
2018-09-30T15:48:13.617Z,5.87
2018-09-30T15:50:40.949Z,5.80
2018-09-30T15:53:08.215Z,5.60
2018-09-30T15:55:35.480Z,5.80
2018-09-30T16:00:29.568Z,5.73
2018-09-30T16:05:23.672Z,5.63
2018-09-30T16:07:50.974Z,5.53
2018-09-30T16:10:18.245Z,5.53
2018-09-30T16:12:45.513Z,5.93
2018-09-30T16:20:06.346Z,5.60
2018-09-30T16:25:00.497Z,4.10
2018-09-30T16:27:27.812Z,4.10
2018-09-30T16:29:55.080Z,4.33
2018-09-30T16:34:49.083Z,4.20
2018-09-30T16:37:16.348Z,3.60
2018-09-30T16:39:43.612Z,3.47
2018-09-30T16:42:10.880Z,3.50
2018-09-30T16:49:31.800Z,3.77
2018-09-30T16:51:59.080Z,3.55
2018-09-30T16:54:26.352Z,3.57
2018-09-30T16:56:53.732Z,3.53
2018-09-30T16:59:21.541Z,3.73
2018-09-30T17:01:48.810Z,3.77
2018-09-30T17:04:16.074Z,3.73
2018-09-30T17:06:43.367Z,3.70
2018-09-30T17:09:10.621Z,3.53
2018-09-30T17:11:37.875Z,3.70
2018-09-30T17:14:05.150Z,3.50
2018-09-30T17:16:32.420Z,3.93
2018-09-30T17:18:59.999Z,3.80
2018-09-30T17:21:27.274Z,3.65
2018-09-30T17:23:54.549Z,3.17
2018-09-30T17:26:21.817Z,4.00
2018-09-30T17:28:49.096Z,3.80
2018-09-30T17:31:16.456Z,3.90
2018-09-30T17:33:43.660Z,3.53
2018-09-30T17:36:10.972Z,3.40
2018-09-30T17:38:38.249Z,3.97
2018-09-30T17:41:05.521Z,3.83
2018-09-30T17:43:32.801Z,4.00
2018-09-30T17:46:00.086Z,3.50
2018-09-30T17:48:27.365Z,3.50
2018-09-30T17:50:54.667Z,4.30
2018-09-30T17:53:21.941Z,4.07
2018-09-30T17:55:49.212Z,4.33
2018-09-30T17:58:16.483Z,4.57
2018-09-30T18:00:43.762Z,4.10
2018-09-30T18:03:11.028Z,6.10
2018-09-30T18:05:38.309Z,5.83
2018-09-30T18:08:05.588Z,9.77
2018-09-30T18:10:32.880Z,7.87
2018-09-30T18:13:00.136Z,5.00
2018-09-30T18:15:27.396Z,4.73
2018-09-30T18:17:54.676Z,4.10
2018-09-30T18:20:21.980Z,3.77
2018-09-30T18:22:49.276Z,3.80
2018-09-30T18:25:16.553Z,3.30
2018-09-30T18:27:43.876Z,3.47
2018-09-30T18:30:15.548Z,3.87
2018-09-30T18:32:42.812Z,4.17
2018-09-30T18:35:10.084Z,4.00
2018-09-30T18:37:37.355Z,4.10
2018-09-30T18:40:05.107Z,3.97
2018-09-30T18:42:32.389Z,4.07
2018-09-30T18:44:59.703Z,4.50
2018-09-30T18:47:26.973Z,4.90
2018-09-30T18:49:54.246Z,4.20
2018-09-30T18:52:21.520Z,4.17
2018-09-30T18:54:48.845Z,4.20
2018-09-30T18:57:16.109Z,4.80
2018-09-30T18:59:43.392Z,4.63
2018-09-30T19:02:10.646Z,4.67
2018-09-30T19:04:37.915Z,5.00
2018-09-30T19:07:05.176Z,5.40
2018-09-30T19:09:32.445Z,4.50
2018-09-30T19:11:59.769Z,4.83
2018-09-30T19:14:27.040Z,5.00
2018-09-30T19:16:54.316Z,4.87
2018-09-30T19:19:21.580Z,5.20
2018-09-30T19:21:48.844Z,4.70
2018-09-30T19:24:16.139Z,5.23
2018-09-30T19:26:43.402Z,5.27
2018-09-30T19:29:10.677Z,4.77
2018-09-30T19:31:37.956Z,5.37
2018-09-30T19:34:05.298Z,5.53
2018-09-30T19:36:32.556Z,5.30
2018-09-30T19:38:59.838Z,5.00
2018-09-30T19:41:27.115Z,5.07
2018-09-30T19:43:54.392Z,4.90
2018-09-30T19:46:21.669Z,5.13
2018-09-30T19:48:49.065Z,5.50
2018-09-30T19:51:16.220Z,5.23
2018-09-30T19:53:43.480Z,5.60
2018-09-30T19:56:10.740Z,5.03
2018-09-30T19:58:38.004Z,4.80
2018-09-30T20:01:05.285Z,4.67
2018-09-30T20:03:32.581Z,5.37
2018-09-30T20:05:59.844Z,4.70
2018-09-30T20:08:27.092Z,5.83
2018-09-30T20:10:54.365Z,5.27
2018-09-30T20:13:21.632Z,5.23
2018-09-30T20:15:48.979Z,5.60
2018-09-30T20:18:16.577Z,5.00
2018-09-30T20:20:43.953Z,5.00
2018-09-30T20:23:11.172Z,5.20
2018-09-30T20:25:38.444Z,5.45
2018-09-30T20:28:05.748Z,4.77
2018-09-30T20:30:33.012Z,5.23
2018-09-30T20:33:00.288Z,5.17
2018-09-30T20:35:27.568Z,4.73
2018-09-30T20:37:54.899Z,5.63
2018-09-30T20:40:22.227Z,5.40
2018-09-30T20:42:49.508Z,5.03
2018-09-30T20:45:16.814Z,4.93
2018-09-30T20:47:44.128Z,5.80
2018-09-30T20:50:11.408Z,5.73
2018-09-30T20:52:38.683Z,4.70
2018-09-30T20:55:06.016Z,5.83
2018-09-30T20:57:33.286Z,5.47
2018-09-30T21:00:00.668Z,5.53
2018-09-30T21:02:27.938Z,5.23
2018-09-30T21:04:55.356Z,5.50
2018-09-30T21:07:22.575Z,5.00
2018-09-30T21:09:49.859Z,5.50
2018-09-30T21:12:17.153Z,6.47
2018-09-30T21:14:44.433Z,5.80
2018-09-30T21:17:11.712Z,6.17
2018-09-30T21:19:38.970Z,6.27
2018-09-30T21:22:06.253Z,6.23
2018-09-30T21:24:33.527Z,6.07
2018-09-30T21:27:00.873Z,6.73
2018-09-30T21:29:28.179Z,5.90
2018-09-30T21:31:55.467Z,6.27
2018-09-30T21:34:22.766Z,5.83
2018-09-30T21:36:49.989Z,6.00
2018-09-30T21:39:17.283Z,5.87
2018-09-30T21:41:44.572Z,5.33
2018-09-30T21:44:11.881Z,4.90
2018-09-30T21:46:39.157Z,5.87
2018-09-30T21:49:06.580Z,5.60
2018-09-30T21:51:33.784Z,4.83
2018-09-30T21:54:01.120Z,5.07
2018-09-30T21:56:28.405Z,5.50
2018-09-30T21:58:55.829Z,5.63
2018-09-30T22:01:23.251Z,6.03
2018-09-30T22:03:50.439Z,5.20
2018-09-30T22:06:17.738Z,5.20
2018-09-30T22:08:44.996Z,5.40
2018-09-30T22:13:39.072Z,5.50
2018-09-30T22:16:06.465Z,6.30
2018-09-30T22:18:33.742Z,5.80
2018-09-30T22:21:01.017Z,5.70
2018-09-30T22:23:28.304Z,6.07
2018-09-30T22:25:55.628Z,5.60
2018-09-30T22:28:22.923Z,5.90
2018-09-30T22:30:50.435Z,6.03
2018-09-30T22:33:17.742Z,5.67
2018-09-30T22:35:45.033Z,6.53
2018-09-30T22:38:12.292Z,6.55
2018-09-30T22:40:39.642Z,6.00
2018-09-30T22:43:06.942Z,6.50
2018-09-30T22:45:34.228Z,7.63
2018-09-30T22:48:01.508Z,7.33
2018-09-30T22:50:28.829Z,7.03
2018-09-30T22:52:56.216Z,8.63
2018-09-30T22:55:23.488Z,8.23
2018-09-30T22:57:50.745Z,7.50
2018-09-30T23:00:18.028Z,7.80
2018-09-30T23:02:45.295Z,8.10
2018-09-30T23:05:12.561Z,9.63
2018-09-30T23:07:39.823Z,8.50
2018-09-30T23:10:09.173Z,8.80
2018-09-30T23:12:36.468Z,8.53
2018-09-30T23:15:03.892Z,9.20
2018-09-30T23:17:31.180Z,8.40
2018-09-30T23:19:58.471Z,8.80
2018-09-30T23:22:25.732Z,10.33
2018-09-30T23:24:52.992Z,8.50
2018-09-30T23:27:20.264Z,9.50
2018-09-30T23:29:47.544Z,8.93
2018-09-30T23:32:14.815Z,9.53
2018-09-30T23:34:42.092Z,8.80
2018-09-30T23:37:09.357Z,9.60
2018-09-30T23:39:36.636Z,9.53
2018-09-30T23:42:03.899Z,9.53
2018-09-30T23:44:31.163Z,10.10
2018-09-30T23:46:58.503Z,8.77
2018-09-30T23:49:25.770Z,10.10
2018-09-30T23:51:53.015Z,10.03
2018-09-30T23:54:20.285Z,9.43
2018-09-30T23:56:47.613Z,9.57
2018-09-30T23:59:14.892Z,9.27
